Delray Beach, FL

4:14 AM EDT on August 28, 2014 (GMT -0400)
Brads Bedding Plants Inc. | Change Station
CLOSE
Current Station
Personal Weather Station
Location: Delray Beach, FL
Elevation: 19 ft
Nearby Weather Stations

Elev 19 ft 26.47 °N, 80.18 °W | Updated 1 second ago

Partly Cloudy
Partly Cloudy
79.2 °F
Feels Like 83 °F
N
0.0
Wind Variable Wind from East
Gusts 0.0 mph

Today
High -- | Low -- °F
--% Chance of Precip.
Yesterday
High -- | Low -- °F
Precip. -- in
6:58 AM 7:44 PM
Waxing Crescent, 7% visible
Pressure 29.95 in
Visibility 10.0 miles
Clouds Few 2800 ft
Scattered Clouds 8000 ft
Heat Index 83 °F
Dew Point 76 °F
Humidity 89%
Rainfall 0.00 in
Snow Depth Not available.
UV 0.0 out of 12
Pollen 5.40 out of 12
Air Quality Not available.
Flu Activity Not available.
METAR KPMP 280753Z AUTO 10006KT 10SM FEW028 SCT080 29/23 A2995 RMK AO2 SLP142 T02890228 $

More Conditions Fewer Conditions

Pressure 29.95 in
Visibility 10.0 miles
Clouds Few 2800 ft
Scattered Clouds 8000 ft
Heat Index 83 °F
Dew Point 76 °F
Humidity 89%
Rainfall 0.00 in
Snow Depth Not available.
UV 0.0 out of 12
Pollen 5.40 out of 12
Air Quality Not available.
Flu Activity Not available.
METAR KPMP 280753Z AUTO 10006KT 10SM FEW028 SCT080 29/23 A2995 RMK AO2 SLP142 T02890228 $

More Conditions Fewer Conditions

10-Day Weather Forecast

Almanac

Astronomy

Aug. 28, 2014 Rise Set
Actual Time 6:58 AM EDT 7:44 PM EDT
Civil Twilight 6:35 AM EDT 8:08 PM EDT
Nautical Twilight 6:07 AM EDT 8:36 PM EDT
Astronomical Twilight 5:38 AM EDT 9:04 PM EDT
Moon 9:29 AM EDT 9:30 PM EDT
Length of Visible Light 13h 33m
Length of Day
12h 45m
Tomorrow will be 1m 29s shorter.
Waxing Crescent, 7% of the Moon is Illuminated
Today
Waxing Crescent
Sep 2
First Quarter
Sep 8
Full
Sep 15
Last Quarter
Sep 24
New

Today's Extremes

State Highs State Lows

Community

WunderPhotos

Upload Photos

1,747,918 photos uploaded!

Nearby

Air Quality

  Air Quality AQ Index Pollutant
Thursday Good
OZONE
Thursday Good
PM2.5
Friday Good
OZONE
Friday Good
PM2.5

Snow Depth

Station Depth Elevation
No new snow has been reported.

Earthquake Activity

City Distance Mag. Time & Date
No recent earthquake activity has been reported nearby.
Minimum magnitude displayed is 2.5.

Coastal Water Temperatures

Place Temperature
Lake Worth, FL 87.1 °F
Virginia Key, FL 87.1 °F

Nearby Weather Stations